Accueil
METAR-TAF:

METAR-TAF

Aéroports :

Laupheim, Allemagne

latitude: 48-13N, longitude: 009-55E, altitude: 538 m

Observation

Le bulletin a été fait il y a 47 minutes, à 02:20 UTC
Vent 2 kt de sud
Température 14°C
Humidité 88%
Pression 1020 hPa
Visibilité 10 km ou plus
Nuages fragmentés à une hauteur de 20000 ft

METAR: ETHL 270220Z 19002KT 9999 BKN200 14/12 Q1020 BLU+

Heure: 05:07 (03:07 UTC)


TAF: absent

Observations et prévisions météorologiques de plus de 4000 aéroports (messages METAR et TAF).

Les stations disponibles sont représentées par des disques jaunes et rouges sur la carte.

Passer la souris dessus pour voir le nom de la station.

Cliquer dessus pour voir les observations et prévisions météorologiques.

Pour changer de carte: cliquez sur les boutons verts avec une croix noire pour zoomer, sur le bouton vert avec un tiret pour effectuer un zoom arrière, ou sur les flèches vertes pour les cartes adjacentes.


METAR-TAF: